createdAt,value
2017-06-26T00:02:16.551Z,16.70
2017-06-26T00:04:44.118Z,16.80
2017-06-26T00:07:11.657Z,16.50
2017-06-26T00:09:39.178Z,16.50
2017-06-26T00:12:06.718Z,16.70
2017-06-26T00:14:34.250Z,16.40
2017-06-26T00:17:01.806Z,16.30
2017-06-26T00:19:29.338Z,16.40
2017-06-26T00:21:57.669Z,16.20
2017-06-26T00:24:25.203Z,16.20
2017-06-26T00:26:52.722Z,16.20
2017-06-26T00:29:21.037Z,16.40
2017-06-26T00:31:48.553Z,16.30
2017-06-26T00:34:16.106Z,16.30
2017-06-26T00:36:43.629Z,16.20
2017-06-26T00:39:11.170Z,16.20
2017-06-26T00:41:38.694Z,16.40
2017-06-26T00:44:06.270Z,16.40
2017-06-26T00:46:34.573Z,16.20
2017-06-26T00:49:02.133Z,16.10
2017-06-26T00:51:29.657Z,16.20
2017-06-26T00:53:57.195Z,16.20
2017-06-26T00:56:24.719Z,16.10
2017-06-26T00:58:52.262Z,16.20
2017-06-26T01:01:19.794Z,16.40
2017-06-26T01:03:47.338Z,16.40
2017-06-26T01:06:14.858Z,16.50
2017-06-26T01:08:42.384Z,16.30
2017-06-26T01:11:09.958Z,16.20
2017-06-26T01:13:37.473Z,16.20
2017-06-26T01:16:05.006Z,16.00
2017-06-26T01:18:32.524Z,16.50
2017-06-26T01:21:00.841Z,16.70
2017-06-26T01:23:28.375Z,16.70
2017-06-26T01:25:55.927Z,16.50
2017-06-26T01:28:24.213Z,16.40
2017-06-26T01:30:51.756Z,16.40
2017-06-26T01:33:20.047Z,16.40
2017-06-26T01:35:47.597Z,16.40
2017-06-26T01:38:15.881Z,16.00
2017-06-26T01:40:43.441Z,16.00
2017-06-26T01:43:11.733Z,15.70
2017-06-26T01:45:39.358Z,15.70
2017-06-26T01:48:06.901Z,15.80
2017-06-26T01:50:34.428Z,15.80
2017-06-26T01:53:01.974Z,15.60
2017-06-26T01:55:29.504Z,15.80
2017-06-26T01:57:57.060Z,15.80
2017-06-26T02:00:24.584Z,16.20
2017-06-26T02:02:52.128Z,16.10
2017-06-26T02:05:19.654Z,15.90
2017-06-26T02:07:47.977Z,16.00
2017-06-26T02:10:15.501Z,16.00
2017-06-26T02:12:43.826Z,16.10
2017-06-26T02:15:11.353Z,16.00
2017-06-26T02:17:38.877Z,15.90
2017-06-26T02:20:06.418Z,15.80
2017-06-26T02:22:33.945Z,15.70
2017-06-26T02:25:01.489Z,15.70
2017-06-26T02:27:29.022Z,15.80
2017-06-26T02:29:57.333Z,15.70
2017-06-26T02:32:24.853Z,15.70
2017-06-26T02:34:52.399Z,15.70
2017-06-26T02:37:19.924Z,15.90
2017-06-26T02:39:47.465Z,15.70
2017-06-26T02:42:14.998Z,15.70
2017-06-26T02:44:43.318Z,15.50
2017-06-26T02:47:10.836Z,15.50
2017-06-26T02:49:39.152Z,15.50
2017-06-26T02:52:06.685Z,15.50
2017-06-26T02:54:34.969Z,15.60
2017-06-26T02:57:02.513Z,15.60
2017-06-26T02:59:30.813Z,15.70
2017-06-26T03:01:58.354Z,15.70
2017-06-26T03:04:26.659Z,15.80
2017-06-26T03:06:54.224Z,15.70
2017-06-26T03:09:21.749Z,15.90
2017-06-26T03:11:57.741Z,15.70
2017-06-26T03:14:26.081Z,15.60
2017-06-26T03:16:53.653Z,16.00
2017-06-26T03:19:21.941Z,15.80
2017-06-26T03:21:49.477Z,15.80
2017-06-26T03:24:16.997Z,15.80
2017-06-26T03:26:44.546Z,15.80
2017-06-26T03:29:12.070Z,15.70
2017-06-26T03:31:40.381Z,15.90
2017-06-26T03:34:07.902Z,15.90
2017-06-26T03:36:36.203Z,15.90
2017-06-26T03:39:03.737Z,15.90
2017-06-26T03:41:32.043Z,16.00
2017-06-26T03:43:59.616Z,16.00
2017-06-26T03:46:27.158Z,15.80
2017-06-26T03:48:54.693Z,16.10
2017-06-26T03:51:22.980Z,16.00
2017-06-26T03:53:51.280Z,16.00
2017-06-26T03:56:18.826Z,16.00
2017-06-26T03:58:46.385Z,16.00
2017-06-26T04:01:14.673Z,16.10
2017-06-26T04:03:42.227Z,16.00
2017-06-26T04:06:10.532Z,16.20
2017-06-26T04:08:38.075Z,16.30
2017-06-26T04:11:05.602Z,16.10
2017-06-26T04:13:33.191Z,16.20
2017-06-26T04:16:00.727Z,16.30
2017-06-26T04:18:28.265Z,16.40
2017-06-26T04:20:55.809Z,16.30
2017-06-26T04:23:23.360Z,16.30
2017-06-26T04:25:50.922Z,16.30
2017-06-26T04:28:18.452Z,16.10
2017-06-26T04:30:46.002Z,16.30
2017-06-26T04:33:13.561Z,16.30
2017-06-26T04:35:41.873Z,16.40
2017-06-26T04:38:09.406Z,16.30
2017-06-26T04:40:36.949Z,16.40
2017-06-26T04:43:04.479Z,16.40
2017-06-26T04:45:32.038Z,16.20
2017-06-26T04:47:59.586Z,16.40
2017-06-26T04:50:27.117Z,16.20
2017-06-26T04:52:54.662Z,16.30
2017-06-26T04:55:22.953Z,16.30
2017-06-26T04:57:50.505Z,16.30
2017-06-26T05:00:18.046Z,16.20
2017-06-26T05:02:46.367Z,16.40
2017-06-26T05:05:13.894Z,16.30
2017-06-26T05:07:42.196Z,16.50
2017-06-26T05:10:09.723Z,16.50
2017-06-26T05:12:38.046Z,16.50
2017-06-26T05:15:05.573Z,16.50
2017-06-26T05:17:33.943Z,16.60
2017-06-26T05:20:02.243Z,16.60
2017-06-26T05:22:29.810Z,16.60
2017-06-26T05:24:57.337Z,16.60
2017-06-26T05:27:25.661Z,16.40
2017-06-26T05:29:53.215Z,16.40
2017-06-26T05:32:20.742Z,16.40
2017-06-26T05:34:49.056Z,16.30
2017-06-26T05:37:16.590Z,16.30
2017-06-26T05:39:44.133Z,16.20
2017-06-26T05:42:12.427Z,16.20
2017-06-26T05:44:39.981Z,16.20
2017-06-26T05:47:08.272Z,16.40
2017-06-26T05:49:35.818Z,16.40
2017-06-26T05:52:04.117Z,16.20
2017-06-26T05:54:31.667Z,16.20
2017-06-26T05:56:59.230Z,16.30
2017-06-26T05:59:26.769Z,16.20
2017-06-26T06:01:55.070Z,16.10
2017-06-26T06:04:22.613Z,16.10
2017-06-26T06:06:50.164Z,16.00
2017-06-26T06:09:17.686Z,16.30
2017-06-26T06:11:45.233Z,16.10
2017-06-26T06:14:12.770Z,15.90
2017-06-26T06:16:40.317Z,15.90
2017-06-26T06:19:07.877Z,16.00
2017-06-26T06:21:35.416Z,16.40
2017-06-26T06:24:02.955Z,16.70
2017-06-26T06:26:30.508Z,15.80
2017-06-26T06:28:58.026Z,15.10
2017-06-26T06:31:25.573Z,15.00
2017-06-26T06:33:53.116Z,15.00
2017-06-26T06:36:20.659Z,15.40
2017-06-26T06:38:48.193Z,15.20
2017-06-26T06:41:15.754Z,15.20
2017-06-26T06:43:43.289Z,15.20
2017-06-26T06:46:10.820Z,14.90
2017-06-26T06:48:38.380Z,14.70
2017-06-26T06:51:05.904Z,14.70
2017-06-26T06:53:33.450Z,14.30
2017-06-26T06:56:00.978Z,14.50
2017-06-26T06:58:28.532Z,14.20
2017-06-26T07:00:56.061Z,14.80
2017-06-26T07:03:23.649Z,14.70
2017-06-26T07:05:51.195Z,14.60
2017-06-26T07:08:18.761Z,14.80
2017-06-26T07:10:46.291Z,14.60
2017-06-26T07:13:13.867Z,14.60
2017-06-26T07:15:41.407Z,14.60
2017-06-26T07:18:08.957Z,14.60
2017-06-26T07:20:36.507Z,15.10
2017-06-26T07:23:04.045Z,14.90
2017-06-26T07:25:31.591Z,15.20
2017-06-26T07:27:59.245Z,15.70
2017-06-26T07:30:26.785Z,15.70
2017-06-26T07:32:54.330Z,15.50
2017-06-26T07:35:21.892Z,16.20
2017-06-26T07:37:49.450Z,16.30
2017-06-26T07:40:17.000Z,16.60
2017-06-26T07:42:44.557Z,16.20
2017-06-26T07:45:12.102Z,16.70
2017-06-26T07:47:39.626Z,17.50
2017-06-26T07:50:07.178Z,17.60
2017-06-26T07:52:34.728Z,18.20
2017-06-26T07:55:02.271Z,18.10
2017-06-26T07:57:29.852Z,18.10
2017-06-26T07:59:57.407Z,18.50
2017-06-26T08:02:24.981Z,18.10
2017-06-26T08:04:52.515Z,17.60
2017-06-26T08:07:20.071Z,18.60
2017-06-26T08:09:47.615Z,18.30
2017-06-26T08:12:15.166Z,19.50
2017-06-26T08:14:42.689Z,19.10
2017-06-26T08:17:10.245Z,18.20
2017-06-26T08:19:37.779Z,18.10
2017-06-26T08:22:05.335Z,18.80
2017-06-26T08:24:32.873Z,18.70
2017-06-26T08:27:00.447Z,19.50
2017-06-26T08:29:27.987Z,18.80
2017-06-26T08:31:55.542Z,19.20
2017-06-26T08:34:23.071Z,19.20
2017-06-26T08:36:50.627Z,19.20
2017-06-26T08:39:18.177Z,19.20
2017-06-26T08:41:45.715Z,20.10
2017-06-26T08:44:13.286Z,19.30
2017-06-26T08:46:40.845Z,19.10
2017-06-26T08:49:08.401Z,19.90
2017-06-26T08:51:35.925Z,19.70
2017-06-26T08:54:03.527Z,19.50
2017-06-26T08:56:31.061Z,19.70
2017-06-26T08:58:58.724Z,20.10
2017-06-26T09:01:26.255Z,20.20
2017-06-26T09:03:53.802Z,20.20
2017-06-26T09:06:21.344Z,20.20
2017-06-26T09:08:48.883Z,19.70
2017-06-26T09:11:16.406Z,20.90
2017-06-26T09:13:43.962Z,20.90
2017-06-26T09:16:11.489Z,19.60
2017-06-26T09:18:39.030Z,19.10
2017-06-26T09:21:06.577Z,19.50
2017-06-26T09:23:34.107Z,19.60
2017-06-26T09:26:01.671Z,20.40
2017-06-26T09:28:29.199Z,20.00
2017-06-26T09:30:56.766Z,20.00
2017-06-26T09:33:24.311Z,20.80
2017-06-26T09:35:51.875Z,20.90
2017-06-26T09:38:19.432Z,19.80
2017-06-26T09:40:46.987Z,20.10
2017-06-26T09:43:14.540Z,20.90
2017-06-26T09:45:42.094Z,21.40
2017-06-26T09:48:09.628Z,20.70
2017-06-26T09:50:37.173Z,21.40
2017-06-26T09:53:04.714Z,20.90
2017-06-26T09:55:32.262Z,19.90
2017-06-26T09:57:59.818Z,21.30
2017-06-26T10:00:27.349Z,22.60
2017-06-26T10:02:54.893Z,21.80
2017-06-26T10:05:22.417Z,21.20
2017-06-26T10:07:49.983Z,21.40
2017-06-26T10:10:17.516Z,21.40
2017-06-26T10:12:45.067Z,21.40
2017-06-26T10:15:12.584Z,22.60
2017-06-26T10:17:40.148Z,21.60
2017-06-26T10:20:07.675Z,21.30
2017-06-26T10:22:35.202Z,21.20
2017-06-26T10:25:02.750Z,21.40
2017-06-26T10:27:30.280Z,21.30
2017-06-26T10:29:57.821Z,20.30
2017-06-26T10:32:25.360Z,20.70
2017-06-26T10:34:52.915Z,22.60
2017-06-26T10:37:20.444Z,22.40
2017-06-26T10:39:47.985Z,22.60
2017-06-26T10:42:15.541Z,22.10
2017-06-26T10:44:43.124Z,21.60
2017-06-26T10:47:10.683Z,21.50
2017-06-26T10:49:38.236Z,21.30
2017-06-26T10:52:05.779Z,22.20
2017-06-26T10:54:33.337Z,23.00
2017-06-26T10:57:00.861Z,22.30
2017-06-26T10:59:28.382Z,23.00
2017-06-26T11:01:55.916Z,22.00
2017-06-26T11:04:23.442Z,22.10
2017-06-26T11:06:51.002Z,22.70
2017-06-26T11:09:18.526Z,22.70
2017-06-26T11:11:46.067Z,22.60
2017-06-26T11:14:13.603Z,21.40
2017-06-26T11:16:41.167Z,22.00
2017-06-26T11:19:08.706Z,21.60
2017-06-26T11:21:36.255Z,21.60
2017-06-26T11:24:03.796Z,22.10
2017-06-26T11:26:31.357Z,22.80
2017-06-26T11:28:58.889Z,22.50
2017-06-26T11:31:26.447Z,21.20
2017-06-26T11:33:53.988Z,21.00
2017-06-26T11:36:21.539Z,20.40
2017-06-26T11:38:49.879Z,20.10
2017-06-26T11:41:18.577Z,20.40
2017-06-26T11:43:46.139Z,20.50
2017-06-26T11:46:14.859Z,21.80
2017-06-26T11:48:42.416Z,21.80
2017-06-26T11:51:09.934Z,21.90
2017-06-26T11:53:37.515Z,23.40
2017-06-26T11:56:05.052Z,23.10
2017-06-26T11:58:32.666Z,23.90
2017-06-26T12:01:00.207Z,23.30
2017-06-26T12:03:27.779Z,22.40
2017-06-26T12:05:55.318Z,23.70
2017-06-26T12:08:22.890Z,24.00
2017-06-26T12:10:50.424Z,23.20
2017-06-26T12:13:17.956Z,23.50
2017-06-26T12:15:45.507Z,24.10
2017-06-26T12:18:13.060Z,23.80
2017-06-26T12:20:40.626Z,23.90
2017-06-26T12:23:08.151Z,23.10
2017-06-26T12:25:35.708Z,23.60
2017-06-26T12:28:03.241Z,23.20
2017-06-26T12:30:31.923Z,23.60
2017-06-26T12:32:59.464Z,23.60
2017-06-26T12:35:27.019Z,22.10
2017-06-26T12:37:54.555Z,22.00
2017-06-26T12:40:23.243Z,22.70
2017-06-26T12:42:50.776Z,22.70
2017-06-26T12:45:18.330Z,21.80
2017-06-26T12:47:45.863Z,21.70
2017-06-26T12:50:13.427Z,21.60
2017-06-26T12:52:40.949Z,22.60
2017-06-26T12:55:08.474Z,22.80
2017-06-26T12:57:36.038Z,22.70
2017-06-26T13:00:03.579Z,23.30
2017-06-26T13:02:31.125Z,22.60
2017-06-26T13:04:58.664Z,23.20
2017-06-26T13:07:26.227Z,23.40
2017-06-26T13:09:53.764Z,23.40
2017-06-26T13:12:21.317Z,23.00
2017-06-26T13:14:48.878Z,22.90
2017-06-26T13:17:16.427Z,23.00
2017-06-26T13:19:43.959Z,22.80
2017-06-26T13:22:11.507Z,22.50
2017-06-26T13:24:39.037Z,22.70
2017-06-26T13:27:06.592Z,22.80
2017-06-26T13:29:34.145Z,22.70
2017-06-26T13:32:01.679Z,22.00
2017-06-26T13:34:29.255Z,21.90
2017-06-26T13:36:56.779Z,22.10
2017-06-26T13:39:24.341Z,21.40
2017-06-26T13:41:53.011Z,21.40
2017-06-26T13:44:20.568Z,21.40
2017-06-26T13:46:48.100Z,21.40
2017-06-26T13:49:15.656Z,21.20
2017-06-26T13:51:43.231Z,21.40
2017-06-26T13:54:10.773Z,21.80
2017-06-26T13:56:38.308Z,21.70
2017-06-26T13:59:05.864Z,21.60
2017-06-26T14:01:33.398Z,21.80
2017-06-26T14:04:00.943Z,21.70
2017-06-26T14:06:28.475Z,21.80
2017-06-26T14:08:57.159Z,21.40
2017-06-26T14:11:24.702Z,21.50
2017-06-26T14:13:52.242Z,22.30
2017-06-26T14:16:19.800Z,22.20
2017-06-26T14:18:47.326Z,22.90
2017-06-26T14:21:14.870Z,22.20
2017-06-26T14:23:42.406Z,22.00
2017-06-26T14:26:09.967Z,22.00
2017-06-26T14:28:38.663Z,22.50
2017-06-26T14:31:06.198Z,22.50
2017-06-26T14:33:34.865Z,22.10
2017-06-26T14:36:02.410Z,21.40
2017-06-26T14:38:29.940Z,21.40
2017-06-26T14:40:57.504Z,21.90
2017-06-26T14:43:25.026Z,22.20
2017-06-26T14:45:52.557Z,22.00
2017-06-26T14:48:20.111Z,22.40
2017-06-26T14:50:47.649Z,22.10
2017-06-26T14:53:15.202Z,22.40
2017-06-26T14:55:42.731Z,22.10
2017-06-26T14:58:10.278Z,22.30
2017-06-26T15:00:37.819Z,22.60
2017-06-26T15:03:05.363Z,23.00
2017-06-26T15:05:32.904Z,22.90
2017-06-26T15:08:00.459Z,22.70
2017-06-26T15:10:27.999Z,22.00
2017-06-26T15:12:56.686Z,22.00
2017-06-26T15:15:24.225Z,22.00
2017-06-26T15:17:51.778Z,21.60
2017-06-26T15:20:19.348Z,22.10
2017-06-26T15:22:46.884Z,22.10
2017-06-26T15:25:14.440Z,22.00
2017-06-26T15:27:41.964Z,22.10
2017-06-26T15:30:09.524Z,22.60
2017-06-26T15:32:37.055Z,23.30
2017-06-26T15:35:04.606Z,23.10
2017-06-26T15:37:32.143Z,22.80
2017-06-26T15:39:59.728Z,22.50
2017-06-26T15:42:27.251Z,21.70
2017-06-26T15:44:54.803Z,21.80
2017-06-26T15:47:22.343Z,22.00
2017-06-26T15:49:49.882Z,22.40
2017-06-26T15:52:17.423Z,22.70
2017-06-26T15:54:44.985Z,22.00
2017-06-26T15:57:12.550Z,21.60
2017-06-26T15:59:40.092Z,21.60
2017-06-26T16:02:08.770Z,22.00
2017-06-26T16:04:36.346Z,22.00
2017-06-26T16:07:03.901Z,21.80
2017-06-26T16:09:31.438Z,22.00
2017-06-26T16:12:00.124Z,22.40
2017-06-26T16:14:27.654Z,22.40
2017-06-26T16:16:55.203Z,21.90
2017-06-26T16:19:22.733Z,22.00
2017-06-26T16:21:50.294Z,22.00
2017-06-26T16:24:17.818Z,22.00
2017-06-26T16:26:45.361Z,21.80
2017-06-26T16:29:12.882Z,21.90
2017-06-26T16:31:40.435Z,21.80
2017-06-26T16:34:07.971Z,21.30
2017-06-26T16:36:35.492Z,21.20
2017-06-26T16:39:03.051Z,21.30
2017-06-26T16:41:30.587Z,21.80
2017-06-26T16:43:59.336Z,21.80
2017-06-26T16:46:26.892Z,21.80
2017-06-26T16:48:54.454Z,21.30
2017-06-26T16:51:21.988Z,21.80
2017-06-26T16:53:49.543Z,20.90
2017-06-26T16:56:17.063Z,20.80
2017-06-26T16:58:45.748Z,20.90
2017-06-26T17:01:13.269Z,21.00
2017-06-26T17:03:40.839Z,20.90
2017-06-26T17:06:08.374Z,21.10
2017-06-26T17:08:35.921Z,20.70
2017-06-26T17:11:04.593Z,21.00
2017-06-26T17:13:32.129Z,21.00
2017-06-26T17:15:59.694Z,20.90
2017-06-26T17:18:27.239Z,21.30
2017-06-26T17:20:54.791Z,21.00
2017-06-26T17:23:23.448Z,21.00
2017-06-26T17:25:50.993Z,20.90
2017-06-26T17:28:19.676Z,21.20
2017-06-26T17:30:47.240Z,21.20
2017-06-26T17:33:14.784Z,21.40
2017-06-26T17:35:42.331Z,21.10
2017-06-26T17:38:09.870Z,21.10
2017-06-26T17:40:37.433Z,21.20
2017-06-26T17:43:04.964Z,21.30
2017-06-26T17:45:33.641Z,20.50
2017-06-26T17:48:01.199Z,20.40
2017-06-26T17:50:28.759Z,20.80
2017-06-26T17:52:56.317Z,20.80
2017-06-26T17:55:23.855Z,21.30
2017-06-26T17:57:51.423Z,21.40
2017-06-26T18:00:18.971Z,21.00
2017-06-26T18:02:46.518Z,20.70
2017-06-26T18:05:14.064Z,20.80
2017-06-26T18:07:41.626Z,21.00
2017-06-26T18:10:09.160Z,20.60
2017-06-26T18:12:36.693Z,20.60
2017-06-26T18:15:04.239Z,20.70
2017-06-26T18:17:31.806Z,20.60
2017-06-26T18:19:59.387Z,20.40
2017-06-26T18:22:26.938Z,20.30
2017-06-26T18:24:54.461Z,20.50
2017-06-26T18:27:22.000Z,20.60
2017-06-26T18:29:49.528Z,20.60
2017-06-26T18:32:17.045Z,20.40
2017-06-26T18:34:44.653Z,20.40
2017-06-26T18:37:12.186Z,20.10
2017-06-26T18:39:39.733Z,20.20
2017-06-26T18:42:07.267Z,20.20
2017-06-26T18:44:34.821Z,20.10
2017-06-26T18:47:02.362Z,20.20
2017-06-26T18:49:29.911Z,20.20
2017-06-26T18:51:57.440Z,19.80
2017-06-26T18:54:24.980Z,19.80
2017-06-26T18:56:52.523Z,20.00
2017-06-26T18:59:20.073Z,19.60
2017-06-26T19:01:47.606Z,20.00
2017-06-26T19:04:15.163Z,20.10
2017-06-26T19:06:42.692Z,20.10
2017-06-26T19:09:10.218Z,20.10
2017-06-26T19:11:37.771Z,19.80
2017-06-26T19:14:05.307Z,19.80
2017-06-26T19:16:32.862Z,19.90
2017-06-26T19:19:00.397Z,20.10
2017-06-26T19:21:27.951Z,19.90
2017-06-26T19:23:55.465Z,19.80
2017-06-26T19:26:23.017Z,19.90
2017-06-26T19:28:50.557Z,19.90
2017-06-26T19:31:18.116Z,20.10
2017-06-26T19:33:45.665Z,19.80
2017-06-26T19:36:13.228Z,20.00
2017-06-26T19:38:40.775Z,19.70
2017-06-26T19:41:08.334Z,19.50
2017-06-26T19:43:35.868Z,19.60
2017-06-26T19:46:03.390Z,19.50
2017-06-26T19:48:30.960Z,19.40
2017-06-26T19:50:58.508Z,19.40
2017-06-26T19:53:26.063Z,19.10
2017-06-26T19:55:53.596Z,18.90
2017-06-26T19:58:21.149Z,18.80
2017-06-26T20:00:48.677Z,18.80
2017-06-26T20:03:16.213Z,19.00
2017-06-26T20:05:43.760Z,19.00
2017-06-26T20:08:11.327Z,19.10
2017-06-26T20:10:38.859Z,18.80
2017-06-26T20:13:06.422Z,18.80
2017-06-26T20:15:33.945Z,18.70
2017-06-26T20:18:01.504Z,18.60
2017-06-26T20:20:29.040Z,18.80
2017-06-26T20:22:56.596Z,18.80
2017-06-26T20:25:24.131Z,18.70
2017-06-26T20:27:51.682Z,18.70
2017-06-26T20:30:19.275Z,18.60
2017-06-26T20:32:46.823Z,18.60
2017-06-26T20:35:14.350Z,18.80
2017-06-26T20:37:41.870Z,18.70
2017-06-26T20:40:09.406Z,18.90
2017-06-26T20:42:36.926Z,18.70
2017-06-26T20:45:04.469Z,18.50
2017-06-26T20:47:32.013Z,18.70
2017-06-26T20:49:59.603Z,18.50
2017-06-26T20:52:27.161Z,18.60
2017-06-26T20:54:54.702Z,18.60
2017-06-26T20:57:22.227Z,18.70
2017-06-26T20:59:49.770Z,18.20
2017-06-26T21:02:17.300Z,18.10
2017-06-26T21:04:44.861Z,18.50
2017-06-26T21:07:12.392Z,18.30
2017-06-26T21:09:39.951Z,18.30
2017-06-26T21:12:07.497Z,18.00
2017-06-26T21:14:35.022Z,18.20
2017-06-26T21:17:02.590Z,18.00
2017-06-26T21:19:30.100Z,18.10
2017-06-26T21:21:57.651Z,18.10
2017-06-26T21:24:25.178Z,18.20
2017-06-26T21:26:52.731Z,17.80
2017-06-26T21:29:20.263Z,17.90
2017-06-26T21:31:47.793Z,18.00
2017-06-26T21:34:15.313Z,17.90
2017-06-26T21:36:42.869Z,17.80
2017-06-26T21:39:10.403Z,17.90
2017-06-26T21:41:37.946Z,18.00
2017-06-26T21:44:05.466Z,17.80
2017-06-26T21:46:32.994Z,17.50
2017-06-26T21:49:00.539Z,17.50
2017-06-26T21:51:28.078Z,17.60
2017-06-26T21:53:55.641Z,17.50
2017-06-26T21:56:23.171Z,17.60
2017-06-26T21:58:50.718Z,17.20
2017-06-26T22:01:18.253Z,17.10
2017-06-26T22:03:45.813Z,17.20
2017-06-26T22:06:13.351Z,17.00
2017-06-26T22:08:40.891Z,17.10
2017-06-26T22:11:08.410Z,16.90
2017-06-26T22:13:35.954Z,17.10
2017-06-26T22:16:03.468Z,17.20
2017-06-26T22:18:31.017Z,16.90
2017-06-26T22:20:58.544Z,16.80
2017-06-26T22:23:26.103Z,16.80
2017-06-26T22:25:53.629Z,16.70
2017-06-26T22:28:21.187Z,16.50
2017-06-26T22:30:48.710Z,16.70
2017-06-26T22:33:16.253Z,16.60
2017-06-26T22:35:43.783Z,16.60
2017-06-26T22:38:11.309Z,16.70
2017-06-26T22:40:38.845Z,16.80
2017-06-26T22:43:06.361Z,16.90
2017-06-26T22:45:33.910Z,16.80
2017-06-26T22:48:01.434Z,16.90
2017-06-26T22:50:28.982Z,16.60
2017-06-26T22:52:56.523Z,16.80
2017-06-26T22:55:24.084Z,16.60
2017-06-26T22:57:51.610Z,16.40
2017-06-26T23:00:19.203Z,16.50
2017-06-26T23:02:46.730Z,16.30
2017-06-26T23:05:14.269Z,16.60
2017-06-26T23:07:41.803Z,16.30
2017-06-26T23:10:09.363Z,16.40
2017-06-26T23:12:36.907Z,16.30
2017-06-26T23:15:04.476Z,16.60
2017-06-26T23:17:32.006Z,16.60
2017-06-26T23:19:59.551Z,16.60
2017-06-26T23:22:27.103Z,16.70
2017-06-26T23:24:54.636Z,16.60
2017-06-26T23:27:22.189Z,16.20
2017-06-26T23:29:49.713Z,16.30
2017-06-26T23:32:17.262Z,16.40
2017-06-26T23:34:44.789Z,16.20
2017-06-26T23:37:12.329Z,16.20
2017-06-26T23:39:39.855Z,16.30
2017-06-26T23:42:07.406Z,16.00
2017-06-26T23:44:34.939Z,16.30
2017-06-26T23:47:02.480Z,16.10
2017-06-26T23:49:30.001Z,15.80
2017-06-26T23:51:57.548Z,15.80
2017-06-26T23:54:25.076Z,16.00
2017-06-26T23:56:52.602Z,15.50
2017-06-26T23:59:20.146Z,15.60
